Virtual Norwegian is not affiliated with Norwegian Air Shuttle in any way.
If you are looking for the real "Norwegian", or you wish to book Norwegian flights, please visit Norwegian.com


We use cookies to ensure you get the best experience on our website.   ACCEPT

EGBB - BHX - Birmingham (Birmingham)

General Info Alternate Airport
ICAO: EGBB Elevation: 327 ft ICAO: EGCC
IATA: BHX Country: United Kingdom IATA: MAN
City: Birmingham Charts: Log in to view charts City: Manchester
Name: Birmingham Hub: No Name Manchester
General Info
ICAO: EGBB
IATA: BHX
City: Birmingham
Name: Birmingham
Elevation: 327 ft
Country: United Kingdom
Charts: Log in to view charts
Hub: No
 
Alternate Airport
ICAO: EGCC
IATA: MAN
City: Manchester
Name: Manchester

Weather
231450Z 19006KT 150V220 9999 BKN010 16/14 Q1015
Weather
231450Z 19006KT 150V220 9999 BKN010 16/14 Q1015

NOTAMs
NOTAMs currently unavailable.
NOTAMs
NOTAMs currently unavailable

Route map
Airport
Airport (hub)